sensor_id;sensor_type;location;lat;lon;timestamp;temperature;humidity
23683;DHT22;24897;53.514;10.482;2022-11-20T00:02:38;3.50;99.90
23683;DHT22;24897;53.514;10.482;2022-11-20T00:05:22;3.20;99.90
23683;DHT22;24897;53.514;10.482;2022-11-20T00:08:06;3.20;99.90
23683;DHT22;24897;53.514;10.482;2022-11-20T00:13:35;3.40;99.90
23683;DHT22;24897;53.514;10.482;2022-11-20T00:16:21;2.90;99.90
23683;DHT22;24897;53.514;10.482;2022-11-20T00:24:37;3.00;99.90
23683;DHT22;24897;53.514;10.482;2022-11-20T00:30:07;2.80;99.90
23683;DHT22;24897;53.514;10.482;2022-11-20T00:32:51;2.80;99.90
23683;DHT22;24897;53.514;10.482;2022-11-20T00:35:36;2.40;99.90
23683;DHT22;24897;53.514;10.482;2022-11-20T00:38:20;2.30;99.90
23683;DHT22;24897;53.514;10.482;2022-11-20T00:41:07;2.60;99.90
23683;DHT22;24897;53.514;10.482;2022-11-20T00:43:53;2.70;99.90
23683;DHT22;24897;53.514;10.482;2022-11-20T00:46:37;2.40;99.90
23683;DHT22;24897;53.514;10.482;2022-11-20T00:57:35;2.70;99.90
23683;DHT22;24897;53.514;10.482;2022-11-20T01:00:19;2.30;99.90
23683;DHT22;24897;53.514;10.482;2022-11-20T01:03:03;2.80;99.90
23683;DHT22;24897;53.514;10.482;2022-11-20T01:05:47;2.50;99.90
23683;DHT22;24897;53.514;10.482;2022-11-20T01:08:32;4.20;99.90
23683;DHT22;24897;53.514;10.482;2022-11-20T01:11:24;3.20;99.90
23683;DHT22;24897;53.514;10.482;2022-11-20T01:14:15;3.00;99.90
23683;DHT22;24897;53.514;10.482;2022-11-20T01:19:44;2.50;99.90
23683;DHT22;24897;53.514;10.482;2022-11-20T01:22:28;2.70;99.90
23683;DHT22;24897;53.514;10.482;2022-11-20T01:28:00;2.70;99.90
23683;DHT22;24897;53.514;10.482;2022-11-20T01:30:47;2.10;99.90
23683;DHT22;24897;53.514;10.482;2022-11-20T01:33:31;3.30;99.90
23683;DHT22;24897;53.514;10.482;2022-11-20T01:36:17;2.60;99.90
23683;DHT22;24897;53.514;10.482;2022-11-20T01:39:09;2.60;99.90
23683;DHT22;24897;53.514;10.482;2022-11-20T01:41:55;3.00;99.90
23683;DHT22;24897;53.514;10.482;2022-11-20T01:45:00;2.50;99.90
23683;DHT22;24897;53.514;10.482;2022-11-20T01:47:45;2.60;99.90
23683;DHT22;24897;53.514;10.482;2022-11-20T01:50:30;2.40;99.90
23683;DHT22;24897;53.514;10.482;2022-11-20T01:53:17;2.50;99.90
23683;DHT22;24897;53.514;10.482;2022-11-20T01:56:04;1.50;99.90
23683;DHT22;24897;53.514;10.482;2022-11-20T01:58:53;2.60;99.90
23683;DHT22;24897;53.514;10.482;2022-11-20T02:04:23;3.60;99.90
23683;DHT22;24897;53.514;10.482;2022-11-20T02:07:08;2.00;99.90
23683;DHT22;24897;53.514;10.482;2022-11-20T02:09:53;2.40;99.90
23683;DHT22;24897;53.514;10.482;2022-11-20T02:12:37;2.80;99.90
23683;DHT22;24897;53.514;10.482;2022-11-20T02:15:40;3.70;99.90
23683;DHT22;24897;53.514;10.482;2022-11-20T02:18:24;2.40;99.90
23683;DHT22;24897;53.514;10.482;2022-11-20T02:24:21;2.70;99.90
23683;DHT22;24897;53.514;10.482;2022-11-20T02:27:12;2.50;99.90
23683;DHT22;24897;53.514;10.482;2022-11-20T02:30:00;2.70;99.90
23683;DHT22;24897;53.514;10.482;2022-11-20T02:32:45;2.90;99.90
23683;DHT22;24897;53.514;10.482;2022-11-20T02:38:15;2.70;99.90
23683;DHT22;24897;53.514;10.482;2022-11-20T02:46:28;2.70;99.90
23683;DHT22;24897;53.514;10.482;2022-11-20T03:00:12;2.50;99.90
23683;DHT22;24897;53.514;10.482;2022-11-20T03:11:10;2.00;99.90
23683;DHT22;24897;53.514;10.482;2022-11-20T03:13:55;2.50;99.90
23683;DHT22;24897;53.514;10.482;2022-11-20T03:16:39;2.10;99.90
23683;DHT22;24897;53.514;10.482;2022-11-20T03:22:09;2.70;99.90
23683;DHT22;24897;53.514;10.482;2022-11-20T03:27:38;2.20;99.90
23683;DHT22;24897;53.514;10.482;2022-11-20T03:30:22;2.20;99.90
23683;DHT22;24897;53.514;10.482;2022-11-20T03:33:06;1.40;99.90
23683;DHT22;24897;53.514;10.482;2022-11-20T03:35:50;2.60;99.90
23683;DHT22;24897;53.514;10.482;2022-11-20T03:38:35;2.90;99.90
23683;DHT22;24897;53.514;10.482;2022-11-20T03:41:24;2.60;99.90
23683;DHT22;24897;53.514;10.482;2022-11-20T03:44:10;2.30;99.90
23683;DHT22;24897;53.514;10.482;2022-11-20T03:46:55;1.80;99.90
23683;DHT22;24897;53.514;10.482;2022-11-20T03:49:39;2.10;99.90
23683;DHT22;24897;53.514;10.482;2022-11-20T03:52:23;2.50;99.90
23683;DHT22;24897;53.514;10.482;2022-11-20T03:55:07;1.90;99.90
23683;DHT22;24897;53.514;10.482;2022-11-20T03:57:52;2.70;99.90
23683;DHT22;24897;53.514;10.482;2022-11-20T04:00:36;2.00;99.90
23683;DHT22;24897;53.514;10.482;2022-11-20T04:03:20;2.40;99.90
23683;DHT22;24897;53.514;10.482;2022-11-20T04:06:10;1.80;99.90
23683;DHT22;24897;53.514;10.482;2022-11-20T04:08:57;2.30;99.90
23683;DHT22;24897;53.514;10.482;2022-11-20T04:11:41;2.20;99.90
23683;DHT22;24897;53.514;10.482;2022-11-20T04:14:26;2.30;99.90
23683;DHT22;24897;53.514;10.482;2022-11-20T04:17:10;2.70;99.90
23683;DHT22;24897;53.514;10.482;2022-11-20T04:19:54;2.80;99.90
23683;DHT22;24897;53.514;10.482;2022-11-20T04:22:38;2.80;99.90
23683;DHT22;24897;53.514;10.482;2022-11-20T04:25:22;2.70;99.90
23683;DHT22;24897;53.514;10.482;2022-11-20T04:28:06;2.50;99.90
23683;DHT22;24897;53.514;10.482;2022-11-20T04:30:50;2.40;99.90
23683;DHT22;24897;53.514;10.482;2022-11-20T04:33:34;2.10;99.90
23683;DHT22;24897;53.514;10.482;2022-11-20T04:36:24;2.80;99.90
23683;DHT22;24897;53.514;10.482;2022-11-20T04:39:13;2.30;99.90
23683;DHT22;24897;53.514;10.482;2022-11-20T04:47:47;2.50;99.90
23683;DHT22;24897;53.514;10.482;2022-11-20T04:53:15;2.10;99.90
23683;DHT22;24897;53.514;10.482;2022-11-20T04:56:00;2.30;99.90
23683;DHT22;24897;53.514;10.482;2022-11-20T04:58:45;2.40;99.90
23683;DHT22;24897;53.514;10.482;2022-11-20T05:01:29;1.80;99.90
23683;DHT22;24897;53.514;10.482;2022-11-20T05:04:14;1.80;99.90
23683;DHT22;24897;53.514;10.482;2022-11-20T05:06:58;2.30;99.90
23683;DHT22;24897;53.514;10.482;2022-11-20T05:09:42;2.20;99.90
23683;DHT22;24897;53.514;10.482;2022-11-20T05:12:27;2.20;99.90
23683;DHT22;24897;53.514;10.482;2022-11-20T05:15:12;2.30;99.90
23683;DHT22;24897;53.514;10.482;2022-11-20T05:17:57;2.30;99.90
23683;DHT22;24897;53.514;10.482;2022-11-20T05:20:41;2.20;99.90
23683;DHT22;24897;53.514;10.482;2022-11-20T05:23:25;2.20;99.90
23683;DHT22;24897;53.514;10.482;2022-11-20T05:26:28;2.50;99.90
23683;DHT22;24897;53.514;10.482;2022-11-20T05:29:13;2.00;99.90
23683;DHT22;24897;53.514;10.482;2022-11-20T05:34:41;2.00;99.90
23683;DHT22;24897;53.514;10.482;2022-11-20T05:40:10;2.30;99.90
23683;DHT22;24897;53.514;10.482;2022-11-20T05:42:58;2.40;99.90
23683;DHT22;24897;53.514;10.482;2022-11-20T05:45:42;3.50;99.90
23683;DHT22;24897;53.514;10.482;2022-11-20T05:48:26;1.50;99.90
23683;DHT22;24897;53.514;10.482;2022-11-20T05:51:13;2.10;99.90
23683;DHT22;24897;53.514;10.482;2022-11-20T05:53:57;2.00;99.90
23683;DHT22;24897;53.514;10.482;2022-11-20T05:56:42;2.20;99.90
23683;DHT22;24897;53.514;10.482;2022-11-20T05:59:27;2.10;99.90
23683;DHT22;24897;53.514;10.482;2022-11-20T06:02:11;2.00;99.90
23683;DHT22;24897;53.514;10.482;2022-11-20T06:10:25;1.70;99.90
23683;DHT22;24897;53.514;10.482;2022-11-20T06:13:09;2.00;99.90
23683;DHT22;24897;53.514;10.482;2022-11-20T06:15:53;2.10;99.90
23683;DHT22;24897;53.514;10.482;2022-11-20T06:18:38;2.30;99.90
23683;DHT22;24897;53.514;10.482;2022-11-20T06:21:23;1.80;99.90
23683;DHT22;24897;53.514;10.482;2022-11-20T06:24:09;2.10;99.90
23683;DHT22;24897;53.514;10.482;2022-11-20T06:26:53;1.50;99.90
23683;DHT22;24897;53.514;10.482;2022-11-20T06:29:38;2.10;99.90
23683;DHT22;24897;53.514;10.482;2022-11-20T06:32:22;1.20;99.90
23683;DHT22;24897;53.514;10.482;2022-11-20T06:35:06;2.10;99.90
23683;DHT22;24897;53.514;10.482;2022-11-20T06:37:50;1.60;99.90
23683;DHT22;24897;53.514;10.482;2022-11-20T06:40:34;2.40;99.90
23683;DHT22;24897;53.514;10.482;2022-11-20T06:43:19;2.20;99.90
23683;DHT22;24897;53.514;10.482;2022-11-20T06:46:03;2.60;99.90
23683;DHT22;24897;53.514;10.482;2022-11-20T06:48:48;2.20;99.90
23683;DHT22;24897;53.514;10.482;2022-11-20T06:51:32;2.30;99.90
23683;DHT22;24897;53.514;10.482;2022-11-20T06:54:17;3.20;99.90
23683;DHT22;24897;53.514;10.482;2022-11-20T06:57:01;2.30;99.90
23683;DHT22;24897;53.514;10.482;2022-11-20T06:59:45;2.30;99.90
23683;DHT22;24897;53.514;10.482;2022-11-20T07:07:59;2.20;99.90
23683;DHT22;24897;53.514;10.482;2022-11-20T07:10:43;2.30;99.90
23683;DHT22;24897;53.514;10.482;2022-11-20T07:13:28;2.70;99.90
23683;DHT22;24897;53.514;10.482;2022-11-20T07:18:57;2.00;99.90
23683;DHT22;24897;53.514;10.482;2022-11-20T07:21:42;2.30;99.90
23683;DHT22;24897;53.514;10.482;2022-11-20T07:24:26;2.40;99.90
23683;DHT22;24897;53.514;10.482;2022-11-20T07:27:10;2.50;99.90
23683;DHT22;24897;53.514;10.482;2022-11-20T07:29:54;2.90;99.90
23683;DHT22;24897;53.514;10.482;2022-11-20T07:35:24;2.40;99.90
23683;DHT22;24897;53.514;10.482;2022-11-20T07:38:09;2.90;99.90
23683;DHT22;24897;53.514;10.482;2022-11-20T07:40:54;2.60;99.90
23683;DHT22;24897;53.514;10.482;2022-11-20T07:43:39;2.50;99.90
23683;DHT22;24897;53.514;10.482;2022-11-20T07:46:24;2.10;99.90
23683;DHT22;24897;53.514;10.482;2022-11-20T07:49:08;3.30;99.90
23683;DHT22;24897;53.514;10.482;2022-11-20T07:51:52;2.80;99.90
23683;DHT22;24897;53.514;10.482;2022-11-20T07:54:39;2.60;99.90
23683;DHT22;24897;53.514;10.482;2022-11-20T07:57:23;2.70;99.90
23683;DHT22;24897;53.514;10.482;2022-11-20T08:00:10;2.70;99.90
23683;DHT22;24897;53.514;10.482;2022-11-20T08:02:55;2.70;99.90
23683;DHT22;24897;53.514;10.482;2022-11-20T08:05:39;2.70;99.90
23683;DHT22;24897;53.514;10.482;2022-11-20T08:08:23;2.70;99.90
23683;DHT22;24897;53.514;10.482;2022-11-20T08:11:07;2.60;99.90
23683;DHT22;24897;53.514;10.482;2022-11-20T08:14:11;2.70;99.90
23683;DHT22;24897;53.514;10.482;2022-11-20T08:16:56;2.70;99.90
23683;DHT22;24897;53.514;10.482;2022-11-20T08:19:40;2.80;99.90
23683;DHT22;24897;53.514;10.482;2022-11-20T08:22:24;2.80;99.90
23683;DHT22;24897;53.514;10.482;2022-11-20T08:25:09;2.80;99.90
23683;DHT22;24897;53.514;10.482;2022-11-20T08:27:53;2.80;99.90
23683;DHT22;24897;53.514;10.482;2022-11-20T08:30:37;2.90;99.90
23683;DHT22;24897;53.514;10.482;2022-11-20T08:33:22;2.90;99.90
23683;DHT22;24897;53.514;10.482;2022-11-20T08:36:06;2.80;99.90
23683;DHT22;24897;53.514;10.482;2022-11-20T08:38:52;2.80;99.90
23683;DHT22;24897;53.514;10.482;2022-11-20T08:41:37;2.70;99.90
23683;DHT22;24897;53.514;10.482;2022-11-20T08:44:21;2.60;99.90
23683;DHT22;24897;53.514;10.482;2022-11-20T08:47:05;2.60;99.90
23683;DHT22;24897;53.514;10.482;2022-11-20T08:49:49;5.10;99.90
23683;DHT22;24897;53.514;10.482;2022-11-20T08:55:18;2.60;99.90
23683;DHT22;24897;53.514;10.482;2022-11-20T08:58:05;3.70;99.90
23683;DHT22;24897;53.514;10.482;2022-11-20T09:00:50;2.90;99.90
23683;DHT22;24897;53.514;10.482;2022-11-20T09:06:19;2.70;99.90
23683;DHT22;24897;53.514;10.482;2022-11-20T09:09:03;2.80;99.90
23683;DHT22;24897;53.514;10.482;2022-11-20T09:11:47;3.30;99.90
23683;DHT22;24897;53.514;10.482;2022-11-20T09:14:34;2.80;99.90
23683;DHT22;24897;53.514;10.482;2022-11-20T09:17:18;3.10;99.90
23683;DHT22;24897;53.514;10.482;2022-11-20T09:22:49;3.10;99.90
23683;DHT22;24897;53.514;10.482;2022-11-20T09:25:34;2.60;99.90
23683;DHT22;24897;53.514;10.482;2022-11-20T09:28:18;3.20;99.90
23683;DHT22;24897;53.514;10.482;2022-11-20T09:31:14;3.40;99.90
23683;DHT22;24897;53.514;10.482;2022-11-20T09:34:01;3.50;99.90
23683;DHT22;24897;53.514;10.482;2022-11-20T09:36:46;2.60;99.90
23683;DHT22;24897;53.514;10.482;2022-11-20T09:39:30;3.30;99.90
23683;DHT22;24897;53.514;10.482;2022-11-20T09:42:29;2.80;99.90
23683;DHT22;24897;53.514;10.482;2022-11-20T09:48:14;3.20;99.90
23683;DHT22;24897;53.514;10.482;2022-11-20T09:57:03;3.30;99.90
23683;DHT22;24897;53.514;10.482;2022-11-20T09:59:54;3.40;99.90
23683;DHT22;24897;53.514;10.482;2022-11-20T10:02:52;3.50;99.90
23683;DHT22;24897;53.514;10.482;2022-11-20T10:05:45;3.40;99.90
23683;DHT22;24897;53.514;10.482;2022-11-20T10:08:45;2.70;99.90
23683;DHT22;24897;53.514;10.482;2022-11-20T10:11:51;2.90;99.90
23683;DHT22;24897;53.514;10.482;2022-11-20T10:30:16;4.00;99.90
23683;DHT22;24897;53.514;10.482;2022-11-20T10:36:18;4.00;99.90
23683;DHT22;24897;53.514;10.482;2022-11-20T10:39:33;4.30;99.90
23683;DHT22;24897;53.514;10.482;2022-11-20T10:42:41;3.50;99.90
23683;DHT22;24897;53.514;10.482;2022-11-20T10:48:25;3.90;99.90
23683;DHT22;24897;53.514;10.482;2022-11-20T10:54:29;3.40;99.90
23683;DHT22;24897;53.514;10.482;2022-11-20T10:57:51;3.60;99.90
23683;DHT22;24897;53.514;10.482;2022-11-20T11:00:40;3.60;99.90
23683;DHT22;24897;53.514;10.482;2022-11-20T11:03:27;4.20;99.90
23683;DHT22;24897;53.514;10.482;2022-11-20T11:06:37;3.90;99.90
23683;DHT22;24897;53.514;10.482;2022-11-20T11:09:39;3.80;99.90
23683;DHT22;24897;53.514;10.482;2022-11-20T11:12:27;3.80;99.90
23683;DHT22;24897;53.514;10.482;2022-11-20T11:15:23;3.90;99.90
23683;DHT22;24897;53.514;10.482;2022-11-20T11:18:09;4.00;99.90
23683;DHT22;24897;53.514;10.482;2022-11-20T11:20:55;4.10;99.90
23683;DHT22;24897;53.514;10.482;2022-11-20T11:23:43;5.30;99.90
23683;DHT22;24897;53.514;10.482;2022-11-20T11:26:28;5.70;99.90
23683;DHT22;24897;53.514;10.482;2022-11-20T11:29:17;6.30;99.90
23683;DHT22;24897;53.514;10.482;2022-11-20T11:35:06;6.90;99.90
23683;DHT22;24897;53.514;10.482;2022-11-20T11:37:52;6.60;99.90
23683;DHT22;24897;53.514;10.482;2022-11-20T11:40:39;6.60;99.90
23683;DHT22;24897;53.514;10.482;2022-11-20T11:43:26;5.90;99.90
23683;DHT22;24897;53.514;10.482;2022-11-20T11:46:32;5.30;99.90
23683;DHT22;24897;53.514;10.482;2022-11-20T11:49:18;5.00;99.90
23683;DHT22;24897;53.514;10.482;2022-11-20T11:52:18;4.90;99.90
23683;DHT22;24897;53.514;10.482;2022-11-20T11:55:04;4.50;99.90
23683;DHT22;24897;53.514;10.482;2022-11-20T12:07:20;5.00;99.90
23683;DHT22;24897;53.514;10.482;2022-11-20T12:10:15;4.00;99.90
23683;DHT22;24897;53.514;10.482;2022-11-20T12:16:04;4.10;99.90
23683;DHT22;24897;53.514;10.482;2022-11-20T12:18:51;4.10;99.90
23683;DHT22;24897;53.514;10.482;2022-11-20T12:21:49;4.20;99.90
23683;DHT22;24897;53.514;10.482;2022-11-20T12:34:40;4.50;99.90
23683;DHT22;24897;53.514;10.482;2022-11-20T12:44:01;4.20;99.90
23683;DHT22;24897;53.514;10.482;2022-11-20T12:53:21;3.30;99.90
23683;DHT22;24897;53.514;10.482;2022-11-20T13:03:06;4.00;99.90
23683;DHT22;24897;53.514;10.482;2022-11-20T13:06:16;5.00;99.90
23683;DHT22;24897;53.514;10.482;2022-11-20T13:09:02;5.70;99.90
23683;DHT22;24897;53.514;10.482;2022-11-20T13:15:34;6.50;99.90
23683;DHT22;24897;53.514;10.482;2022-11-20T13:18:20;6.00;99.90
23683;DHT22;24897;53.514;10.482;2022-11-20T13:21:20;5.20;99.90
23683;DHT22;24897;53.514;10.482;2022-11-20T13:24:06;5.10;99.90
23683;DHT22;24897;53.514;10.482;2022-11-20T13:30:19;4.50;99.90
23683;DHT22;24897;53.514;10.482;2022-11-20T13:33:08;4.50;99.90
23683;DHT22;24897;53.514;10.482;2022-11-20T13:36:05;4.60;99.90
23683;DHT22;24897;53.514;10.482;2022-11-20T13:38:55;4.60;99.90
23683;DHT22;24897;53.514;10.482;2022-11-20T13:41:39;4.50;99.90
23683;DHT22;24897;53.514;10.482;2022-11-20T13:44:35;4.50;99.90
23683;DHT22;24897;53.514;10.482;2022-11-20T13:47:26;4.30;99.90
23683;DHT22;24897;53.514;10.482;2022-11-20T13:50:14;4.20;99.90
23683;DHT22;24897;53.514;10.482;2022-11-20T13:59:38;4.10;99.90
23683;DHT22;24897;53.514;10.482;2022-11-20T14:02:26;3.30;99.90
23683;DHT22;24897;53.514;10.482;2022-11-20T14:05:21;3.80;99.90
23683;DHT22;24897;53.514;10.482;2022-11-20T14:08:12;3.80;99.90
23683;DHT22;24897;53.514;10.482;2022-11-20T14:11:24;3.80;99.90
23683;DHT22;24897;53.514;10.482;2022-11-20T14:17:31;3.70;99.90
23683;DHT22;24897;53.514;10.482;2022-11-20T14:20:15;3.40;99.90
23683;DHT22;24897;53.514;10.482;2022-11-20T14:23:02;3.70;99.90
23683;DHT22;24897;53.514;10.482;2022-11-20T14:25:48;3.80;99.90
23683;DHT22;24897;53.514;10.482;2022-11-20T14:28:32;3.50;99.90
23683;DHT22;24897;53.514;10.482;2022-11-20T14:31:23;3.70;99.90
23683;DHT22;24897;53.514;10.482;2022-11-20T14:34:24;4.00;99.90
23683;DHT22;24897;53.514;10.482;2022-11-20T14:37:19;3.80;99.90
23683;DHT22;24897;53.514;10.482;2022-11-20T14:40:24;4.60;99.90
23683;DHT22;24897;53.514;10.482;2022-11-20T14:46:09;4.00;99.90
23683;DHT22;24897;53.514;10.482;2022-11-20T14:48:56;3.70;99.90
23683;DHT22;24897;53.514;10.482;2022-11-20T14:51:40;4.00;99.90
23683;DHT22;24897;53.514;10.482;2022-11-20T14:54:28;3.20;99.90
23683;DHT22;24897;53.514;10.482;2022-11-20T14:57:30;3.80;99.90
23683;DHT22;24897;53.514;10.482;2022-11-20T15:02:59;3.60;99.90
23683;DHT22;24897;53.514;10.482;2022-11-20T15:05:47;3.80;99.90
23683;DHT22;24897;53.514;10.482;2022-11-20T15:08:32;3.10;99.90
23683;DHT22;24897;53.514;10.482;2022-11-20T15:11:18;3.40;99.90
23683;DHT22;24897;53.514;10.482;2022-11-20T15:14:06;3.70;99.90
23683;DHT22;24897;53.514;10.482;2022-11-20T15:16:51;4.00;99.90
23683;DHT22;24897;53.514;10.482;2022-11-20T15:19:36;3.50;99.90
23683;DHT22;24897;53.514;10.482;2022-11-20T15:22:21;3.30;99.90
23683;DHT22;24897;53.514;10.482;2022-11-20T15:25:12;3.40;99.90
23683;DHT22;24897;53.514;10.482;2022-11-20T15:27:57;2.90;99.90
23683;DHT22;24897;53.514;10.482;2022-11-20T15:30:41;3.10;99.90
23683;DHT22;24897;53.514;10.482;2022-11-20T15:33:25;3.50;99.90
23683;DHT22;24897;53.514;10.482;2022-11-20T15:36:10;3.40;99.90
23683;DHT22;24897;53.514;10.482;2022-11-20T15:38:54;3.40;99.90
23683;DHT22;24897;53.514;10.482;2022-11-20T15:41:38;3.30;99.90
23683;DHT22;24897;53.514;10.482;2022-11-20T15:44:23;3.30;99.90
23683;DHT22;24897;53.514;10.482;2022-11-20T15:47:07;3.40;99.90
23683;DHT22;24897;53.514;10.482;2022-11-20T15:49:53;3.60;99.90
23683;DHT22;24897;53.514;10.482;2022-11-20T15:52:37;3.40;99.90
23683;DHT22;24897;53.514;10.482;2022-11-20T15:55:21;3.20;99.90
23683;DHT22;24897;53.514;10.482;2022-11-20T15:58:05;3.20;99.90
23683;DHT22;24897;53.514;10.482;2022-11-20T16:00:50;3.20;99.90
23683;DHT22;24897;53.514;10.482;2022-11-20T16:03:34;3.60;99.90
23683;DHT22;24897;53.514;10.482;2022-11-20T16:06:18;3.50;99.90
23683;DHT22;24897;53.514;10.482;2022-11-20T16:09:02;3.40;99.90
23683;DHT22;24897;53.514;10.482;2022-11-20T16:11:47;3.40;99.90
23683;DHT22;24897;53.514;10.482;2022-11-20T16:14:32;3.00;99.90
23683;DHT22;24897;53.514;10.482;2022-11-20T16:17:35;3.40;99.90
23683;DHT22;24897;53.514;10.482;2022-11-20T16:20:28;3.40;99.90
23683;DHT22;24897;53.514;10.482;2022-11-20T16:23:13;3.40;99.90
23683;DHT22;24897;53.514;10.482;2022-11-20T16:25:58;3.10;99.90
23683;DHT22;24897;53.514;10.482;2022-11-20T16:28:43;3.70;99.90
23683;DHT22;24897;53.514;10.482;2022-11-20T16:31:27;2.90;99.90
23683;DHT22;24897;53.514;10.482;2022-11-20T16:34:11;3.10;99.90
23683;DHT22;24897;53.514;10.482;2022-11-20T16:36:55;3.10;99.90
23683;DHT22;24897;53.514;10.482;2022-11-20T16:39:40;2.90;99.90
23683;DHT22;24897;53.514;10.482;2022-11-20T16:42:24;3.50;99.90
23683;DHT22;24897;53.514;10.482;2022-11-20T16:45:09;3.40;99.90
23683;DHT22;24897;53.514;10.482;2022-11-20T16:47:53;3.10;99.90
23683;DHT22;24897;53.514;10.482;2022-11-20T16:50:48;3.40;99.90
23683;DHT22;24897;53.514;10.482;2022-11-20T16:53:33;3.30;99.90
23683;DHT22;24897;53.514;10.482;2022-11-20T16:56:19;3.40;99.90
23683;DHT22;24897;53.514;10.482;2022-11-20T16:59:04;3.70;99.90
23683;DHT22;24897;53.514;10.482;2022-11-20T17:01:48;3.10;99.90
23683;DHT22;24897;53.514;10.482;2022-11-20T17:04:33;3.40;99.90
23683;DHT22;24897;53.514;10.482;2022-11-20T17:07:17;3.60;99.90
23683;DHT22;24897;53.514;10.482;2022-11-20T17:10:01;3.00;99.90
23683;DHT22;24897;53.514;10.482;2022-11-20T17:12:46;3.10;99.90
23683;DHT22;24897;53.514;10.482;2022-11-20T17:15:30;3.30;99.90
23683;DHT22;24897;53.514;10.482;2022-11-20T17:18:14;3.30;99.90
23683;DHT22;24897;53.514;10.482;2022-11-20T17:20:59;3.40;99.90
23683;DHT22;24897;53.514;10.482;2022-11-20T17:23:48;3.40;99.90
23683;DHT22;24897;53.514;10.482;2022-11-20T17:26:33;2.60;99.90
23683;DHT22;24897;53.514;10.482;2022-11-20T17:29:18;2.60;99.90
23683;DHT22;24897;53.514;10.482;2022-11-20T17:32:07;3.30;99.90
23683;DHT22;24897;53.514;10.482;2022-11-20T17:34:51;3.00;99.90
23683;DHT22;24897;53.514;10.482;2022-11-20T17:37:35;2.80;99.90
23683;DHT22;24897;53.514;10.482;2022-11-20T17:40:19;2.90;99.90
23683;DHT22;24897;53.514;10.482;2022-11-20T17:43:03;3.40;99.90
23683;DHT22;24897;53.514;10.482;2022-11-20T17:45:48;3.10;99.90
23683;DHT22;24897;53.514;10.482;2022-11-20T17:48:33;3.20;99.90
23683;DHT22;24897;53.514;10.482;2022-11-20T17:51:23;3.30;99.90
23683;DHT22;24897;53.514;10.482;2022-11-20T17:54:09;3.40;99.90
23683;DHT22;24897;53.514;10.482;2022-11-20T17:56:54;3.70;99.90
23683;DHT22;24897;53.514;10.482;2022-11-20T17:59:57;3.30;99.90
23683;DHT22;24897;53.514;10.482;2022-11-20T18:02:41;3.30;99.90
23683;DHT22;24897;53.514;10.482;2022-11-20T18:05:25;4.70;99.90
23683;DHT22;24897;53.514;10.482;2022-11-20T18:10:54;3.20;99.90
23683;DHT22;24897;53.514;10.482;2022-11-20T18:13:42;3.60;99.90
23683;DHT22;24897;53.514;10.482;2022-11-20T18:16:48;3.40;99.90
23683;DHT22;24897;53.514;10.482;2022-11-20T18:19:36;3.20;99.90
23683;DHT22;24897;53.514;10.482;2022-11-20T18:22:20;4.20;99.90
23683;DHT22;24897;53.514;10.482;2022-11-20T18:25:06;3.20;99.90
23683;DHT22;24897;53.514;10.482;2022-11-20T18:27:50;3.10;99.90
23683;DHT22;24897;53.514;10.482;2022-11-20T18:30:35;2.80;99.90
23683;DHT22;24897;53.514;10.482;2022-11-20T18:33:19;2.70;99.90
23683;DHT22;24897;53.514;10.482;2022-11-20T18:36:10;2.70;99.90
23683;DHT22;24897;53.514;10.482;2022-11-20T18:38:56;2.30;99.90
23683;DHT22;24897;53.514;10.482;2022-11-20T18:41:41;2.20;99.90
23683;DHT22;24897;53.514;10.482;2022-11-20T18:44:45;2.20;99.90
23683;DHT22;24897;53.514;10.482;2022-11-20T18:47:35;2.10;99.90
23683;DHT22;24897;53.514;10.482;2022-11-20T18:50:22;2.00;99.90
23683;DHT22;24897;53.514;10.482;2022-11-20T18:53:06;2.20;99.90
23683;DHT22;24897;53.514;10.482;2022-11-20T18:55:50;2.00;99.90
23683;DHT22;24897;53.514;10.482;2022-11-20T18:58:34;2.10;99.90
23683;DHT22;24897;53.514;10.482;2022-11-20T19:01:18;1.80;99.90
23683;DHT22;24897;53.514;10.482;2022-11-20T19:04:07;1.70;99.90
23683;DHT22;24897;53.514;10.482;2022-11-20T19:06:51;2.10;99.90
23683;DHT22;24897;53.514;10.482;2022-11-20T19:09:40;2.10;99.90
23683;DHT22;24897;53.514;10.482;2022-11-20T19:12:24;1.80;99.90
23683;DHT22;24897;53.514;10.482;2022-11-20T19:15:09;1.50;99.90
23683;DHT22;24897;53.514;10.482;2022-11-20T19:17:53;1.90;99.90
23683;DHT22;24897;53.514;10.482;2022-11-20T19:20:39;1.90;99.90
23683;DHT22;24897;53.514;10.482;2022-11-20T19:23:23;1.90;99.90
23683;DHT22;24897;53.514;10.482;2022-11-20T19:26:08;1.70;99.90
23683;DHT22;24897;53.514;10.482;2022-11-20T19:28:53;1.90;99.90
23683;DHT22;24897;53.514;10.482;2022-11-20T19:31:37;1.80;99.90
23683;DHT22;24897;53.514;10.482;2022-11-20T19:34:21;1.70;99.90
23683;DHT22;24897;53.514;10.482;2022-11-20T19:37:06;2.10;99.90
23683;DHT22;24897;53.514;10.482;2022-11-20T19:39:50;2.00;99.90
23683;DHT22;24897;53.514;10.482;2022-11-20T19:42:34;1.70;99.90
23683;DHT22;24897;53.514;10.482;2022-11-20T19:45:26;1.90;99.90
23683;DHT22;24897;53.514;10.482;2022-11-20T19:48:10;1.90;99.90
23683;DHT22;24897;53.514;10.482;2022-11-20T19:50:54;1.80;99.90
23683;DHT22;24897;53.514;10.482;2022-11-20T19:53:38;2.10;99.90
23683;DHT22;24897;53.514;10.482;2022-11-20T19:56:24;1.80;99.90
23683;DHT22;24897;53.514;10.482;2022-11-20T19:59:09;1.60;99.90
23683;DHT22;24897;53.514;10.482;2022-11-20T20:01:53;2.60;99.90
23683;DHT22;24897;53.514;10.482;2022-11-20T20:04:38;1.80;99.90
23683;DHT22;24897;53.514;10.482;2022-11-20T20:07:22;1.80;99.90
23683;DHT22;24897;53.514;10.482;2022-11-20T20:10:06;2.10;99.90
23683;DHT22;24897;53.514;10.482;2022-11-20T20:12:50;1.60;99.90
23683;DHT22;24897;53.514;10.482;2022-11-20T20:15:38;1.80;99.90
23683;DHT22;24897;53.514;10.482;2022-11-20T20:18:23;1.60;99.90
23683;DHT22;24897;53.514;10.482;2022-11-20T20:21:09;1.90;99.90
23683;DHT22;24897;53.514;10.482;2022-11-20T20:23:55;1.90;99.90
23683;DHT22;24897;53.514;10.482;2022-11-20T20:26:39;1.40;99.90
23683;DHT22;24897;53.514;10.482;2022-11-20T20:29:24;0.90;99.90
23683;DHT22;24897;53.514;10.482;2022-11-20T20:32:09;0.40;99.90
23683;DHT22;24897;53.514;10.482;2022-11-20T20:34:53;0.70;99.90
23683;DHT22;24897;53.514;10.482;2022-11-20T20:37:37;1.20;99.90
23683;DHT22;24897;53.514;10.482;2022-11-20T20:40:21;1.40;99.90
23683;DHT22;24897;53.514;10.482;2022-11-20T20:43:05;0.80;99.90
23683;DHT22;24897;53.514;10.482;2022-11-20T20:45:50;0.90;99.90
23683;DHT22;24897;53.514;10.482;2022-11-20T20:48:34;0.50;99.90
23683;DHT22;24897;53.514;10.482;2022-11-20T20:51:20;0.80;99.90
23683;DHT22;24897;53.514;10.482;2022-11-20T20:54:04;0.40;99.90
23683;DHT22;24897;53.514;10.482;2022-11-20T20:56:50;1.00;99.90
23683;DHT22;24897;53.514;10.482;2022-11-20T21:02:19;1.60;99.90
23683;DHT22;24897;53.514;10.482;2022-11-20T21:05:04;0.30;99.90